createdAt,value
2023-05-03T00:01:39.325Z,4.35
2023-05-03T00:04:06.394Z,4.05
2023-05-03T00:06:33.540Z,4.47
2023-05-03T00:09:00.640Z,3.75
2023-05-03T00:11:27.681Z,4.47
2023-05-03T00:13:54.658Z,3.95
2023-05-03T00:16:21.799Z,3.92
2023-05-03T00:18:49.475Z,4.82
2023-05-03T00:21:17.193Z,4.20
2023-05-03T00:23:44.180Z,3.85
2023-05-03T00:26:11.170Z,4.22
2023-05-03T00:28:39.763Z,4.07
2023-05-03T00:31:09.069Z,4.00
2023-05-03T00:33:39.926Z,4.30
2023-05-03T00:36:11.508Z,4.10
2023-05-03T00:38:40.554Z,3.95
2023-05-03T00:41:09.368Z,3.80
2023-05-03T00:43:37.956Z,4.00
2023-05-03T00:46:16.775Z,4.28
2023-05-03T00:48:48.068Z,4.05
2023-05-03T00:51:16.468Z,3.95
2023-05-03T00:53:43.558Z,4.35
2023-05-03T00:56:14.243Z,4.03
2023-05-03T00:58:41.311Z,3.85
2023-05-03T01:01:09.062Z,3.80
2023-05-03T01:03:39.876Z,4.00
2023-05-03T01:06:44.522Z,3.60
2023-05-03T01:09:17.402Z,3.65
2023-05-03T01:12:19.599Z,4.15
2023-05-03T01:15:16.072Z,3.88
2023-05-03T01:17:51.064Z,3.65
2023-05-03T01:20:26.073Z,3.95
2023-05-03T01:22:59.087Z,4.00
2023-05-03T01:25:29.447Z,4.05
2023-05-03T01:27:56.674Z,3.70
2023-05-03T01:30:27.705Z,3.55
2023-05-03T01:33:32.558Z,4.15
2023-05-03T01:36:13.228Z,3.40
2023-05-03T01:38:40.611Z,3.63
2023-05-03T01:41:11.824Z,3.17
2023-05-03T01:43:40.885Z,3.70
2023-05-03T01:46:08.434Z,3.53
2023-05-03T01:48:36.014Z,3.63
2023-05-03T01:51:03.531Z,3.90
2023-05-03T01:53:30.596Z,4.63
2023-05-03T01:55:57.635Z,3.97
2023-05-03T01:58:24.673Z,4.20
2023-05-03T02:00:53.278Z,3.13
2023-05-03T02:03:21.022Z,3.67
2023-05-03T02:05:48.707Z,3.45
2023-05-03T02:08:16.717Z,3.40
2023-05-03T02:10:46.870Z,3.78
2023-05-03T02:13:14.106Z,3.38
2023-05-03T02:15:41.499Z,3.08
2023-05-03T02:18:09.774Z,3.40
2023-05-03T02:20:38.227Z,3.30
2023-05-03T02:23:05.371Z,2.80
2023-05-03T02:25:32.563Z,3.08
2023-05-03T02:27:59.953Z,3.28
2023-05-03T02:30:27.288Z,2.70
2023-05-03T02:32:54.520Z,3.10
2023-05-03T02:35:21.665Z,3.00
2023-05-03T02:37:48.817Z,2.72
2023-05-03T02:40:16.891Z,2.80
2023-05-03T02:42:47.664Z,2.88
2023-05-03T02:45:21.025Z,2.88
2023-05-03T02:47:48.359Z,2.90
2023-05-03T02:50:16.136Z,3.22
2023-05-03T02:52:43.157Z,2.70
2023-05-03T02:55:10.574Z,2.60
2023-05-03T02:57:40.424Z,2.95
2023-05-03T03:00:11.530Z,3.03
2023-05-03T03:02:38.926Z,2.88
2023-05-03T03:05:06.436Z,2.60
2023-05-03T03:07:33.783Z,3.10
2023-05-03T03:10:01.193Z,2.97
2023-05-03T03:12:31.762Z,2.80
2023-05-03T03:15:00.473Z,2.38
2023-05-03T03:17:32.684Z,2.65
2023-05-03T03:20:02.321Z,2.80
2023-05-03T03:22:31.060Z,2.95
2023-05-03T03:24:58.091Z,3.03
2023-05-03T03:27:25.116Z,2.83
2023-05-03T03:29:52.145Z,2.95
2023-05-03T03:32:19.185Z,3.03
2023-05-03T03:34:46.329Z,3.00
2023-05-03T03:37:13.376Z,2.97
2023-05-03T03:39:42.362Z,2.72
2023-05-03T03:42:12.301Z,2.72
2023-05-03T03:44:39.560Z,3.10
2023-05-03T03:47:07.611Z,3.25
2023-05-03T03:49:34.731Z,2.92
2023-05-03T03:52:01.783Z,2.90
2023-05-03T03:54:29.624Z,2.80
2023-05-03T03:56:57.282Z,2.90
2023-05-03T03:59:25.373Z,2.95
2023-05-03T04:01:53.692Z,3.17
2023-05-03T04:04:21.357Z,2.65
2023-05-03T04:06:49.389Z,2.30
2023-05-03T04:09:17.704Z,2.65
2023-05-03T04:11:46.338Z,3.25
2023-05-03T04:14:13.847Z,2.88
2023-05-03T04:16:42.432Z,2.50
2023-05-03T04:19:09.709Z,2.92
2023-05-03T04:21:39.340Z,2.80
2023-05-03T04:24:07.377Z,2.85
2023-05-03T04:26:35.368Z,2.78
2023-05-03T04:29:15.835Z,2.58
2023-05-03T04:31:45.101Z,2.80
2023-05-03T04:34:15.910Z,2.90
2023-05-03T04:36:46.645Z,2.47
2023-05-03T04:39:15.564Z,2.67
2023-05-03T04:41:44.691Z,3.13
2023-05-03T04:44:12.121Z,3.28
2023-05-03T04:46:39.795Z,3.00
2023-05-03T04:49:07.675Z,2.60
2023-05-03T04:51:35.081Z,2.97
2023-05-03T04:54:03.027Z,2.75
2023-05-03T04:56:31.407Z,3.25
2023-05-03T04:59:09.104Z,3.15
2023-05-03T05:01:37.417Z,3.17
2023-05-03T05:04:06.867Z,3.50
2023-05-03T05:06:44.848Z,3.22
2023-05-03T05:09:26.124Z,3.20
2023-05-03T05:11:57.160Z,3.30
2023-05-03T05:14:28.462Z,3.10
2023-05-03T05:16:56.718Z,3.75
2023-05-03T05:19:24.078Z,2.95
2023-05-03T05:21:54.743Z,2.75
2023-05-03T05:24:25.862Z,3.10
2023-05-03T05:26:53.071Z,3.08
2023-05-03T05:29:20.410Z,3.63
2023-05-03T05:31:47.877Z,3.42
2023-05-03T05:34:15.594Z,3.63
2023-05-03T05:36:42.796Z,2.88
2023-05-03T05:39:10.294Z,3.20
2023-05-03T05:41:37.471Z,2.97
2023-05-03T05:44:05.298Z,3.10
2023-05-03T05:46:32.432Z,2.78
2023-05-03T05:49:00.139Z,3.58
2023-05-03T05:51:28.149Z,4.10
2023-05-03T05:53:55.640Z,3.95
2023-05-03T05:56:23.771Z,3.45
2023-05-03T05:58:50.762Z,3.17
2023-05-03T06:01:21.215Z,3.40
2023-05-03T06:03:48.282Z,3.20
2023-05-03T06:06:15.409Z,3.40
2023-05-03T06:08:42.484Z,3.92
2023-05-03T06:11:14.168Z,3.67
2023-05-03T06:13:41.973Z,3.63
2023-05-03T06:16:11.640Z,3.00
2023-05-03T06:18:39.344Z,3.45
2023-05-03T06:21:07.710Z,3.95
2023-05-03T06:23:35.383Z,3.45
2023-05-03T06:26:03.888Z,3.72
2023-05-03T06:28:31.183Z,3.50
2023-05-03T06:30:58.312Z,3.80
2023-05-03T06:33:27.415Z,3.80
2023-05-03T06:35:54.960Z,3.40
2023-05-03T06:38:22.295Z,3.20
2023-05-03T06:40:50.527Z,3.55
2023-05-03T06:43:17.559Z,3.83
2023-05-03T06:45:54.221Z,3.78
2023-05-03T06:48:22.135Z,4.20
2023-05-03T06:50:49.448Z,4.25
2023-05-03T06:53:16.477Z,4.05
2023-05-03T06:55:46.190Z,3.92
2023-05-03T06:58:13.317Z,4.43
2023-05-03T07:00:41.202Z,4.13
2023-05-03T07:03:08.426Z,3.95
2023-05-03T07:05:35.665Z,4.00
2023-05-03T07:08:03.708Z,4.60
2023-05-03T07:10:31.493Z,4.00
2023-05-03T07:12:58.888Z,4.15
2023-05-03T07:15:25.964Z,3.85
2023-05-03T07:17:53.106Z,3.85
2023-05-03T07:20:20.275Z,3.65
2023-05-03T07:22:48.401Z,4.60
2023-05-03T07:25:17.892Z,4.30
2023-05-03T07:27:45.137Z,4.18
2023-05-03T07:30:12.525Z,4.20
2023-05-03T07:32:39.829Z,3.97
2023-05-03T07:35:07.985Z,3.97
2023-05-03T07:37:35.131Z,4.47
2023-05-03T07:40:02.476Z,4.53
2023-05-03T07:42:31.391Z,4.00
2023-05-03T07:44:59.627Z,3.50
2023-05-03T07:47:27.858Z,4.05
2023-05-03T07:49:55.066Z,4.45
2023-05-03T07:52:22.039Z,3.80
2023-05-03T07:54:49.153Z,4.22
2023-05-03T07:57:16.516Z,4.82
2023-05-03T07:59:43.616Z,4.57
2023-05-03T08:02:10.730Z,4.38
2023-05-03T08:04:38.066Z,4.30
2023-05-03T08:07:05.383Z,4.32
2023-05-03T08:09:32.475Z,4.70
2023-05-03T08:11:59.623Z,4.47
2023-05-03T08:14:28.093Z,4.47
2023-05-03T08:16:55.272Z,4.03
2023-05-03T08:19:22.312Z,4.70
2023-05-03T08:21:49.438Z,4.32
2023-05-03T08:24:16.645Z,4.50
2023-05-03T08:26:45.505Z,4.30
2023-05-03T08:29:12.580Z,4.38
2023-05-03T08:31:39.868Z,4.53
2023-05-03T08:34:08.148Z,4.70
2023-05-03T08:36:35.915Z,4.82
2023-05-03T08:39:06.604Z,4.93
2023-05-03T08:41:34.159Z,5.18
2023-05-03T08:44:04.106Z,4.22
2023-05-03T08:46:31.367Z,4.85
2023-05-03T08:49:00.161Z,4.38
2023-05-03T08:51:28.360Z,4.57
2023-05-03T08:53:55.443Z,4.10
2023-05-03T08:56:41.675Z,4.60
2023-05-03T08:59:10.685Z,4.45
2023-05-03T09:01:41.745Z,4.32
2023-05-03T09:04:10.405Z,4.20
2023-05-03T09:06:38.536Z,3.92
2023-05-03T09:09:08.780Z,4.30
2023-05-03T09:11:39.119Z,4.05
2023-05-03T09:14:09.729Z,3.90
2023-05-03T09:16:38.394Z,4.45
2023-05-03T09:19:11.904Z,4.40
2023-05-03T09:21:40.810Z,4.40
2023-05-03T09:24:18.828Z,4.35
2023-05-03T09:26:47.811Z,3.92
2023-05-03T09:29:32.641Z,4.30
2023-05-03T09:32:01.456Z,4.20
2023-05-03T09:34:28.924Z,3.53
2023-05-03T09:36:56.707Z,4.15
2023-05-03T09:39:24.037Z,4.03
2023-05-03T09:41:51.306Z,4.68
2023-05-03T09:44:18.730Z,4.70
2023-05-03T09:47:05.363Z,4.22
2023-05-03T09:49:33.235Z,4.88
2023-05-03T09:52:01.765Z,5.07
2023-05-03T09:54:33.353Z,4.70
2023-05-03T09:57:02.596Z,4.63
2023-05-03T09:59:29.779Z,4.53
2023-05-03T10:02:02.536Z,4.88
2023-05-03T10:04:43.808Z,4.35
2023-05-03T10:07:17.762Z,4.88
2023-05-03T10:09:47.404Z,4.47
2023-05-03T10:12:17.803Z,4.70
2023-05-03T10:14:52.349Z,4.68
2023-05-03T10:17:43.663Z,3.95
2023-05-03T10:20:29.822Z,4.15
2023-05-03T10:23:06.164Z,4.03
2023-05-03T10:25:36.006Z,3.95
2023-05-03T10:28:08.838Z,4.50
2023-05-03T10:30:38.009Z,5.25
2023-05-03T10:33:14.320Z,4.57
2023-05-03T10:35:43.470Z,3.88
2023-05-03T10:38:29.877Z,4.30
2023-05-03T10:40:57.272Z,4.70
2023-05-03T10:43:33.371Z,3.80
2023-05-03T10:46:05.705Z,4.82
2023-05-03T10:48:34.445Z,4.75
2023-05-03T10:51:30.798Z,4.70
2023-05-03T10:53:58.080Z,4.50
2023-05-03T10:56:25.430Z,4.50
2023-05-03T10:58:56.304Z,4.78
2023-05-03T11:01:25.060Z,4.63
2023-05-03T11:04:31.778Z,5.30
2023-05-03T11:06:59.598Z,4.43
2023-05-03T11:09:34.663Z,5.40
2023-05-03T11:12:06.457Z,5.15
2023-05-03T11:14:33.708Z,4.25
2023-05-03T11:17:01.460Z,4.10
2023-05-03T11:19:29.503Z,4.25
2023-05-03T11:21:57.778Z,4.40
2023-05-03T11:24:24.978Z,4.40
2023-05-03T11:26:52.016Z,4.22
2023-05-03T11:29:19.675Z,4.32
2023-05-03T11:31:46.982Z,4.22
2023-05-03T11:34:15.875Z,4.30
2023-05-03T11:36:43.116Z,4.00
2023-05-03T11:39:12.111Z,3.85
2023-05-03T11:41:39.340Z,4.45
2023-05-03T11:44:16.284Z,4.18
2023-05-03T11:46:46.721Z,4.22
2023-05-03T11:49:18.585Z,4.18
2023-05-03T11:51:48.016Z,3.97
2023-05-03T11:54:25.363Z,4.40
2023-05-03T11:56:59.183Z,4.55
2023-05-03T11:59:39.080Z,4.07
2023-05-03T12:02:10.862Z,4.15
2023-05-03T12:04:42.974Z,4.38
2023-05-03T12:07:13.399Z,3.75
2023-05-03T12:09:43.974Z,3.30
2023-05-03T12:12:24.751Z,3.55
2023-05-03T12:15:03.100Z,4.35
2023-05-03T12:17:44.100Z,4.00
2023-05-03T12:22:58.106Z,4.40
2023-05-03T12:25:28.934Z,4.07
2023-05-03T12:28:18.754Z,4.00
2023-05-03T12:30:47.622Z,4.07
2023-05-03T12:33:16.895Z,3.72
2023-05-03T12:35:47.826Z,4.43
2023-05-03T12:38:17.378Z,3.88
2023-05-03T12:40:47.037Z,4.05
2023-05-03T12:43:14.428Z,3.75
2023-05-03T12:45:46.498Z,4.13
2023-05-03T12:48:17.362Z,3.72
2023-05-03T12:50:45.721Z,3.67
2023-05-03T12:53:16.963Z,3.72
2023-05-03T12:55:45.206Z,3.60
2023-05-03T13:01:21.988Z,3.58
2023-05-03T13:03:43.115Z,3.53
2023-05-03T13:11:12.618Z,3.55
2023-05-03T13:13:40.258Z,3.60
2023-05-03T13:16:08.053Z,3.10
2023-05-03T13:18:35.580Z,3.33
2023-05-03T13:21:02.636Z,3.80
2023-05-03T13:23:29.720Z,3.42
2023-05-03T13:25:57.381Z,3.80
2023-05-03T13:28:25.088Z,4.07
2023-05-03T13:30:52.082Z,3.80
2023-05-03T13:33:19.135Z,3.30
2023-05-03T13:35:48.108Z,3.40
2023-05-03T13:38:15.794Z,3.40
2023-05-03T13:40:42.833Z,3.63
2023-05-03T13:43:09.850Z,3.67
2023-05-03T13:45:37.067Z,3.90
2023-05-03T13:48:18.725Z,3.20
2023-05-03T13:50:47.151Z,3.15
2023-05-03T13:53:14.311Z,3.60
2023-05-03T13:55:41.539Z,3.53
2023-05-03T13:58:08.783Z,4.18
2023-05-03T14:00:36.289Z,3.70
2023-05-03T14:03:03.713Z,3.83
2023-05-03T14:05:30.997Z,3.97
2023-05-03T14:07:58.383Z,3.97
2023-05-03T14:10:25.633Z,3.75
2023-05-03T14:12:53.146Z,3.92
2023-05-03T14:15:20.740Z,3.67
2023-05-03T14:17:48.124Z,3.30
2023-05-03T14:20:17.740Z,4.10
2023-05-03T14:22:46.275Z,3.55
2023-05-03T14:25:13.462Z,3.28
2023-05-03T14:27:40.494Z,3.20
2023-05-03T14:30:09.575Z,3.30
2023-05-03T14:32:36.931Z,4.05
2023-05-03T14:35:04.158Z,3.53
2023-05-03T14:37:31.406Z,3.60
2023-05-03T14:39:58.955Z,3.65
2023-05-03T14:42:30.386Z,3.58
2023-05-03T14:44:57.366Z,3.95
2023-05-03T14:47:24.761Z,3.20
2023-05-03T14:49:52.241Z,3.80
2023-05-03T14:52:19.277Z,3.78
2023-05-03T14:54:46.381Z,3.70
2023-05-03T14:57:13.460Z,3.92
2023-05-03T14:59:40.578Z,4.18
2023-05-03T15:02:07.644Z,3.90
2023-05-03T15:04:37.037Z,3.97
2023-05-03T15:07:05.306Z,4.13
2023-05-03T15:09:36.138Z,3.97
2023-05-03T15:12:03.954Z,3.72
2023-05-03T15:14:31.462Z,4.13
2023-05-03T15:16:58.647Z,4.47
2023-05-03T15:19:26.854Z,4.20
2023-05-03T15:21:54.134Z,3.67
2023-05-03T15:24:22.230Z,3.83
2023-05-03T15:26:49.286Z,4.28
2023-05-03T15:29:16.510Z,4.20
2023-05-03T15:31:44.147Z,4.38
2023-05-03T15:34:12.488Z,4.40
2023-05-03T15:36:40.786Z,4.78
2023-05-03T15:39:10.263Z,4.95
2023-05-03T15:41:37.318Z,4.18
2023-05-03T15:44:05.638Z,4.05
2023-05-03T15:46:34.558Z,4.47
2023-05-03T15:49:01.967Z,4.70
2023-05-03T15:51:29.474Z,4.43
2023-05-03T15:53:56.635Z,3.92
2023-05-03T15:56:23.875Z,4.20
2023-05-03T15:58:51.125Z,4.22
2023-05-03T16:01:18.796Z,3.97
2023-05-03T16:03:46.568Z,4.10
2023-05-03T16:06:17.925Z,4.43
2023-05-03T16:08:45.757Z,4.00
2023-05-03T16:11:13.512Z,4.32
2023-05-03T16:13:40.842Z,4.45
2023-05-03T16:16:07.999Z,4.53
2023-05-03T16:18:35.166Z,3.95
2023-05-03T16:21:02.815Z,4.07
2023-05-03T16:23:30.054Z,4.80
2023-05-03T16:25:57.155Z,4.82
2023-05-03T16:28:24.484Z,4.78
2023-05-03T16:30:51.919Z,4.93
2023-05-03T16:33:19.624Z,4.45
2023-05-03T16:35:46.709Z,4.90
2023-05-03T16:38:13.728Z,3.97
2023-05-03T16:40:42.563Z,4.53
2023-05-03T16:43:10.350Z,5.47
2023-05-03T16:45:37.743Z,5.07
2023-05-03T16:48:07.383Z,4.43
2023-05-03T16:50:35.845Z,4.78
2023-05-03T16:53:02.855Z,5.38
2023-05-03T16:55:29.974Z,4.70
2023-05-03T16:57:56.996Z,4.32
2023-05-03T17:00:24.451Z,5.03
2023-05-03T17:02:51.541Z,4.72
2023-05-03T17:05:20.385Z,4.38
2023-05-03T17:07:47.453Z,4.95
2023-05-03T17:10:14.596Z,4.65
2023-05-03T17:12:41.686Z,4.13
2023-05-03T17:15:10.223Z,4.68
2023-05-03T17:17:37.409Z,4.93
2023-05-03T17:20:05.227Z,4.95
2023-05-03T17:22:32.555Z,4.65
2023-05-03T17:24:59.700Z,3.70
2023-05-03T17:27:26.744Z,3.90
2023-05-03T17:29:57.404Z,5.18
2023-05-03T17:32:24.683Z,4.40
2023-05-03T17:34:51.744Z,4.55
2023-05-03T17:37:18.778Z,4.03
2023-05-03T17:39:45.748Z,4.75
2023-05-03T17:42:12.801Z,4.00
2023-05-03T17:44:42.908Z,4.07
2023-05-03T17:47:11.179Z,4.10
2023-05-03T17:49:38.326Z,4.18
2023-05-03T17:52:05.361Z,4.43
2023-05-03T17:54:32.438Z,4.32
2023-05-03T17:56:59.516Z,4.50
2023-05-03T17:59:26.512Z,4.18
2023-05-03T18:01:53.569Z,3.67
2023-05-03T18:04:20.713Z,4.10
2023-05-03T18:06:47.798Z,3.95
2023-05-03T18:09:14.845Z,4.15
2023-05-03T18:11:44.960Z,3.70
2023-05-03T18:14:12.517Z,3.78
2023-05-03T18:16:39.700Z,3.10
2023-05-03T18:19:07.062Z,2.70
2023-05-03T18:21:35.542Z,2.50
2023-05-03T18:24:03.541Z,2.40
2023-05-03T18:26:30.564Z,2.10
2023-05-03T18:28:57.608Z,2.10
2023-05-03T18:31:24.728Z,2.17
2023-05-03T18:33:51.856Z,2.25
2023-05-03T18:36:18.886Z,1.90
2023-05-03T18:38:47.260Z,2.05
2023-05-03T18:41:15.973Z,2.30
2023-05-03T18:43:44.227Z,2.28
2023-05-03T18:46:11.912Z,2.33
2023-05-03T18:48:39.618Z,2.05
2023-05-03T18:51:07.221Z,2.28
2023-05-03T18:53:34.524Z,2.05
2023-05-03T18:56:02.977Z,2.40
2023-05-03T18:58:30.396Z,2.50
2023-05-03T19:01:01.370Z,2.20
2023-05-03T19:03:29.691Z,2.35
2023-05-03T19:06:11.394Z,2.35
2023-05-03T19:08:38.674Z,3.03
2023-05-03T19:11:09.633Z,2.97
2023-05-03T19:13:37.801Z,2.53
2023-05-03T19:16:05.707Z,2.63
2023-05-03T19:18:32.894Z,2.60
2023-05-03T19:21:00.296Z,2.28
2023-05-03T19:23:27.325Z,2.42
2023-05-03T19:25:54.301Z,2.33
2023-05-03T19:28:21.526Z,2.28
2023-05-03T19:30:51.762Z,2.30
2023-05-03T19:33:19.803Z,2.45
2023-05-03T19:35:47.252Z,2.70
2023-05-03T19:38:14.687Z,2.42
2023-05-03T19:40:41.840Z,2.40
2023-05-03T19:43:08.925Z,2.83
2023-05-03T19:45:42.098Z,2.47
2023-05-03T19:48:10.465Z,2.67
2023-05-03T19:50:37.795Z,2.92
2023-05-03T19:53:05.064Z,3.00
2023-05-03T19:55:32.130Z,3.45
2023-05-03T19:57:59.344Z,4.88
2023-05-03T20:00:29.974Z,4.93
2023-05-03T20:02:57.119Z,3.40
2023-05-03T20:05:24.216Z,3.90
2023-05-03T20:07:52.803Z,3.38
2023-05-03T20:10:19.945Z,3.33
2023-05-03T20:12:47.347Z,2.90
2023-05-03T20:15:14.448Z,3.35
2023-05-03T20:17:41.562Z,3.05
2023-05-03T20:20:12.548Z,3.22
2023-05-03T20:22:39.789Z,3.63
2023-05-03T20:25:07.368Z,4.10
2023-05-03T20:27:34.419Z,3.30
2023-05-03T20:30:01.849Z,3.85
2023-05-03T20:32:31.420Z,3.80
2023-05-03T20:34:58.490Z,3.75
2023-05-03T20:37:26.739Z,3.65
2023-05-03T20:39:53.714Z,3.97
2023-05-03T20:42:20.841Z,4.60
2023-05-03T20:44:49.254Z,4.22
2023-05-03T20:47:16.318Z,3.72
2023-05-03T20:49:43.628Z,3.85
2023-05-03T20:52:17.872Z,3.75
2023-05-03T20:54:46.497Z,3.67
2023-05-03T20:57:13.881Z,3.60
2023-05-03T20:59:41.177Z,4.03
2023-05-03T21:02:08.438Z,3.97
2023-05-03T21:04:36.496Z,3.50
2023-05-03T21:07:03.828Z,3.30
2023-05-03T21:09:31.653Z,3.35
2023-05-03T21:11:58.705Z,3.00
2023-05-03T21:14:25.795Z,3.20
2023-05-03T21:16:52.906Z,3.35
2023-05-03T21:19:20.042Z,3.20
2023-05-03T21:21:47.242Z,3.42
2023-05-03T21:24:14.391Z,3.50
2023-05-03T21:26:41.596Z,2.95
2023-05-03T21:29:08.667Z,3.28
2023-05-03T21:31:35.816Z,3.22
2023-05-03T21:34:04.162Z,3.28
2023-05-03T21:36:32.608Z,3.10
2023-05-03T21:38:59.716Z,3.53
2023-05-03T21:41:27.061Z,3.65
2023-05-03T21:43:54.153Z,3.30
2023-05-03T21:46:21.286Z,2.97
2023-05-03T21:48:48.560Z,2.85
2023-05-03T21:51:20.136Z,3.65
2023-05-03T21:53:47.983Z,3.25
2023-05-03T21:56:15.682Z,4.03
2023-05-03T21:58:45.787Z,3.50
2023-05-03T22:01:15.260Z,3.67
2023-05-03T22:03:42.479Z,3.10
2023-05-03T22:06:09.725Z,3.35
2023-05-03T22:08:36.980Z,3.70
2023-05-03T22:11:07.271Z,3.70
2023-05-03T22:13:43.172Z,3.92
2023-05-03T22:16:18.501Z,3.17
2023-05-03T22:18:45.534Z,3.90
2023-05-03T22:21:12.798Z,3.72
2023-05-03T22:23:39.848Z,3.70
2023-05-03T22:26:07.471Z,4.07
2023-05-03T22:28:34.468Z,3.80
2023-05-03T22:31:01.494Z,3.67
2023-05-03T22:33:28.728Z,3.47
2023-05-03T22:35:55.733Z,4.10
2023-05-03T22:38:22.725Z,3.95
2023-05-03T22:40:49.838Z,3.90
2023-05-03T22:43:17.491Z,4.13
2023-05-03T22:45:44.530Z,3.55
2023-05-03T22:48:11.553Z,3.90
2023-05-03T22:50:38.850Z,3.97
2023-05-03T22:53:06.342Z,3.20
2023-05-03T22:55:33.431Z,3.80
2023-05-03T22:58:00.433Z,3.80
2023-05-03T23:00:28.128Z,3.67
2023-05-03T23:02:55.794Z,3.28
2023-05-03T23:05:22.895Z,3.15
2023-05-03T23:07:49.987Z,3.60
2023-05-03T23:10:17.027Z,4.18
2023-05-03T23:12:44.133Z,3.58
2023-05-03T23:15:11.981Z,3.75
2023-05-03T23:17:39.156Z,3.83
2023-05-03T23:20:07.239Z,3.55
2023-05-03T23:22:34.930Z,3.38
2023-05-03T23:25:02.102Z,3.22
2023-05-03T23:27:31.048Z,3.45
2023-05-03T23:29:58.694Z,3.67
2023-05-03T23:32:25.966Z,3.88
2023-05-03T23:34:53.565Z,4.85
2023-05-03T23:37:20.733Z,4.15
2023-05-03T23:39:47.778Z,3.55
2023-05-03T23:42:14.798Z,3.33
2023-05-03T23:44:53.054Z,3.10
2023-05-03T23:47:22.009Z,3.95
2023-05-03T23:49:49.066Z,3.38
2023-05-03T23:52:19.119Z,3.55
2023-05-03T23:54:46.445Z,3.75
2023-05-03T23:57:13.503Z,3.65
2023-05-03T23:59:40.503Z,3.47
